Time;durP1;ratioP1;P1;durP2;ratioP2;P2;SDS_P1;SDS_P2;PMS_P1;PMS_P2;Temp;Humidity;BMP_temperature;BMP_pressure;BME280_temperature;BME280_humidity;BME280_pressure;Samples;Min_cycle;Max_cycle;Signal;HPM_P1;HPM_P2
2021/08/16 00:01:03;;;;;;;;;;;20.20;95.80;;;;;;5051321;28;19909;-81
2021/08/16 00:03:29;;;;;;;;;;;20.10;94.80;;;;;;5050173;28;19917;-81
2021/08/16 00:05:54;;;;;;;;;;;20.10;94.00;;;;;;5050058;28;19909;-81
2021/08/16 00:08:20;;;;;;;;;;;20.10;93.00;;;;;;5051139;28;19909;-81
2021/08/16 00:10:45;;;;;;;;;;;20.00;93.00;;;;;;5049196;28;19913;-81
2021/08/16 00:13:11;;;;;;;;;;;19.90;92.90;;;;;;5051772;28;20370;-81
2021/08/16 00:15:36;;;;;;;;;;;19.90;92.50;;;;;;5041930;28;19958;-81
2021/08/16 00:18:03;;;;;;;;;;;19.80;92.50;;;;;;5038060;28;20006;-81
2021/08/16 00:20:28;;;;;;;;;;;19.80;92.40;;;;;;5035854;28;19916;-81
2021/08/16 00:22:54;;;;;;;;;;;19.80;92.30;;;;;;5036292;28;20405;-81
2021/08/16 00:25:20;;;;;;;;;;;19.70;92.50;;;;;;5036643;28;19999;-81
2021/08/16 00:27:45;;;;;;;;;;;19.70;92.60;;;;;;5038170;28;19913;-81
2021/08/16 00:30:11;;;;;;;;;;;19.60;92.70;;;;;;5038298;28;20212;-81
2021/08/16 00:32:37;;;;;;;;;;;19.60;92.90;;;;;;5036381;28;19910;-81
2021/08/16 00:35:02;;;;;;;;;;;19.60;93.00;;;;;;5037796;28;19909;-81
2021/08/16 00:37:28;;;;;;;;;;;19.50;93.10;;;;;;5037322;28;19940;-81
2021/08/16 00:39:53;;;;;;;;;;;19.50;93.30;;;;;;5037747;28;19909;-81
2021/08/16 00:42:19;;;;;;;;;;;19.40;93.40;;;;;;5036676;28;19909;-81
2021/08/16 00:44:44;;;;;;;;;;;19.40;93.50;;;;;;5035908;28;19932;-81
2021/08/16 00:47:10;;;;;;;;;;;19.30;93.60;;;;;;5037692;28;19909;-81
2021/08/16 00:49:35;;;;;;;;;;;19.30;93.60;;;;;;5037117;28;19956;-81
2021/08/16 00:52:02;;;;;;;;;;;19.20;93.50;;;;;;5035998;28;19916;-81
2021/08/16 00:54:27;;;;;;;;;;;19.20;93.60;;;;;;5036097;28;20064;-81
2021/08/16 00:56:53;;;;;;;;;;;19.20;93.80;;;;;;5035468;28;19909;-81
2021/08/16 00:59:21;;;;;;;;;;;19.20;93.60;;;;;;5034603;28;19915;-81
2021/08/16 01:01:46;;;;;;;;;;;19.10;93.60;;;;;;5035400;28;20377;-81
2021/08/16 01:04:13;;;;;;;;;;;19.10;93.60;;;;;;5037224;28;19920;-81
2021/08/16 01:06:39;;;;;;;;;;;19.10;93.50;;;;;;5036818;28;19913;-81
2021/08/16 01:09:05;;;;;;;;;;;19.00;93.30;;;;;;5034722;28;19913;-81
2021/08/16 01:11:31;;;;;;;;;;;19.00;93.40;;;;;;5036735;28;20101;-81
2021/08/16 01:13:56;;;;;;;;;;;19.00;93.50;;;;;;5034999;28;19913;-80
2021/08/16 01:16:22;;;;;;;;;;;19.00;93.40;;;;;;5035574;28;20000;-80
2021/08/16 01:18:47;;;;;;;;;;;18.90;93.40;;;;;;5034983;28;19917;-81
2021/08/16 01:21:14;;;;;;;;;;;18.90;93.40;;;;;;5034872;28;19909;-81
2021/08/16 01:23:40;;;;;;;;;;;18.90;93.60;;;;;;5035073;28;19919;-81
2021/08/16 01:26:06;;;;;;;;;;;18.90;93.50;;;;;;5036031;28;19999;-81
2021/08/16 01:28:31;;;;;;;;;;;18.90;93.60;;;;;;5034105;28;19916;-81
2021/08/16 01:30:58;;;;;;;;;;;19.00;93.50;;;;;;5033970;28;19913;-81
2021/08/16 01:33:24;;;;;;;;;;;19.00;93.50;;;;;;5036319;28;19909;-81
2021/08/16 01:35:50;;;;;;;;;;;19.00;93.40;;;;;;5034884;28;20318;-81
2021/08/16 01:38:25;;;;;;;;;;;18.90;93.40;;;;;;5034974;28;19939;-81
2021/08/16 01:40:50;;;;;;;;;;;18.90;93.40;;;;;;5035049;28;20393;-81
2021/08/16 01:43:16;;;;;;;;;;;18.90;93.40;;;;;;5034943;28;19973;-80
2021/08/16 01:45:41;;;;;;;;;;;18.90;93.70;;;;;;5036234;28;20387;-81
2021/08/16 01:48:07;;;;;;;;;;;18.90;93.50;;;;;;5036333;28;19909;-81
2021/08/16 01:50:33;;;;;;;;;;;18.90;93.60;;;;;;5035385;28;20282;-81
2021/08/16 01:52:58;;;;;;;;;;;18.90;93.50;;;;;;5034817;28;19909;-81
2021/08/16 01:55:24;;;;;;;;;;;18.90;93.60;;;;;;5035990;28;19909;-81
2021/08/16 01:57:50;;;;;;;;;;;18.90;93.60;;;;;;5034434;28;19913;-81
2021/08/16 02:00:15;;;;;;;;;;;18.90;93.70;;;;;;5034054;28;19913;-81
2021/08/16 02:02:41;;;;;;;;;;;18.90;93.60;;;;;;5035837;28;19913;-81
2021/08/16 02:05:07;;;;;;;;;;;18.90;93.50;;;;;;5034301;28;20378;-81
2021/08/16 02:07:33;;;;;;;;;;;18.90;93.40;;;;;;5034351;28;19909;-81
2021/08/16 02:09:58;;;;;;;;;;;18.90;93.40;;;;;;5033900;28;20285;-81
2021/08/16 02:12:24;;;;;;;;;;;18.90;93.40;;;;;;5034505;28;20004;-81
2021/08/16 02:14:49;;;;;;;;;;;19.00;93.40;;;;;;5036110;28;20423;-81
2021/08/16 02:17:15;;;;;;;;;;;18.90;93.50;;;;;;5034196;28;19910;-81
2021/08/16 02:19:40;;;;;;;;;;;18.90;93.50;;;;;;5033690;28;19924;-80
2021/08/16 02:22:06;;;;;;;;;;;18.90;93.60;;;;;;5035840;28;19919;-80
2021/08/16 02:24:31;;;;;;;;;;;18.90;93.70;;;;;;5033785;28;19921;-81
2021/08/16 02:26:57;;;;;;;;;;;18.90;93.60;;;;;;5034920;28;19963;-81
2021/08/16 02:29:22;;;;;;;;;;;18.90;93.80;;;;;;5032796;28;19916;-81
2021/08/16 02:31:48;;;;;;;;;;;18.90;93.80;;;;;;5033667;28;19964;-81
2021/08/16 02:34:13;;;;;;;;;;;18.90;93.90;;;;;;5035580;28;20321;-81
2021/08/16 02:36:39;;;;;;;;;;;18.80;93.90;;;;;;5035170;28;19909;-81
2021/08/16 02:39:04;;;;;;;;;;;18.80;94.00;;;;;;5032209;28;20401;-81
2021/08/16 02:41:30;;;;;;;;;;;18.80;94.00;;;;;;5034906;28;19913;-81
2021/08/16 02:43:56;;;;;;;;;;;18.80;94.20;;;;;;5033253;28;20000;-81
2021/08/16 02:46:21;;;;;;;;;;;18.80;94.20;;;;;;5033659;28;19916;-81
2021/08/16 02:48:47;;;;;;;;;;;18.80;94.30;;;;;;5032918;28;19909;-80
2021/08/16 02:51:12;;;;;;;;;;;18.70;94.40;;;;;;5033201;28;19957;-81
2021/08/16 02:53:38;;;;;;;;;;;18.80;94.50;;;;;;5034258;28;19944;-81
2021/08/16 02:56:04;;;;;;;;;;;18.80;94.60;;;;;;5033904;28;19909;-81
2021/08/16 02:58:29;;;;;;;;;;;18.80;94.60;;;;;;5033281;28;19917;-81
2021/08/16 03:00:55;;;;;;;;;;;18.70;94.60;;;;;;5032929;28;20460;-81
2021/08/16 03:03:20;;;;;;;;;;;18.70;94.70;;;;;;5034923;28;19917;-81
2021/08/16 03:05:46;;;;;;;;;;;18.70;94.80;;;;;;5033793;28;20292;-81
2021/08/16 03:08:11;;;;;;;;;;;18.70;94.90;;;;;;5033575;28;19910;-81
2021/08/16 03:10:37;;;;;;;;;;;18.70;94.80;;;;;;5033109;28;19910;-81
2021/08/16 03:13:02;;;;;;;;;;;18.70;94.80;;;;;;5033789;28;19909;-81
2021/08/16 03:15:28;;;;;;;;;;;18.70;94.90;;;;;;5033428;28;20394;-81
2021/08/16 03:17:55;;;;;;;;;;;18.60;95.00;;;;;;5033764;28;19998;-81
2021/08/16 03:20:20;;;;;;;;;;;18.60;95.00;;;;;;5033143;28;20377;-81
2021/08/16 03:22:46;;;;;;;;;;;18.60;95.10;;;;;;5034861;28;19985;-81
2021/08/16 03:25:12;;;;;;;;;;;18.50;95.20;;;;;;5034892;28;20051;-81
2021/08/16 03:27:38;;;;;;;;;;;18.60;95.20;;;;;;5034941;28;20196;-81
2021/08/16 03:30:04;;;;;;;;;;;18.60;95.20;;;;;;5033137;28;19910;-81
2021/08/16 03:32:30;;;;;;;;;;;18.60;95.20;;;;;;5033328;28;19920;-81
2021/08/16 03:34:55;;;;;;;;;;;18.60;95.30;;;;;;5034104;28;19913;-81
2021/08/16 03:37:21;;;;;;;;;;;18.60;95.30;;;;;;5034522;28;19917;-81
2021/08/16 03:39:46;;;;;;;;;;;18.50;95.20;;;;;;5032656;28;19909;-81
2021/08/16 03:42:11;;;;;;;;;;;18.60;95.40;;;;;;5034756;28;20286;-81
2021/08/16 03:44:37;;;;;;;;;;;18.60;95.40;;;;;;5035163;28;19920;-81
2021/08/16 03:47:03;;;;;;;;;;;18.50;95.40;;;;;;5033499;28;19963;-81
2021/08/16 03:49:28;;;;;;;;;;;18.50;95.40;;;;;;5033190;28;19971;-81
2021/08/16 03:51:54;;;;;;;;;;;18.50;95.50;;;;;;5037060;28;20326;-81
2021/08/16 03:54:19;;;;;;;;;;;18.50;95.60;;;;;;5038287;28;20316;-81
2021/08/16 03:56:45;;;;;;;;;;;18.50;95.90;;;;;;5037233;28;20376;-81
2021/08/16 03:59:10;;;;;;;;;;;18.50;95.70;;;;;;5036557;28;19960;-80
2021/08/16 04:01:36;;;;;;;;;;;18.50;96.00;;;;;;5036757;28;19964;-80
2021/08/16 04:04:02;;;;;;;;;;;18.50;95.80;;;;;;5036636;28;20015;-80
2021/08/16 04:06:28;;;;;;;;;;;18.50;95.70;;;;;;5035564;28;19924;-80
2021/08/16 04:08:54;;;;;;;;;;;18.50;95.80;;;;;;5034833;28;19909;-80
2021/08/16 04:11:20;;;;;;;;;;;18.50;95.70;;;;;;5036616;28;19909;-80
2021/08/16 04:13:45;;;;;;;;;;;18.50;95.70;;;;;;5036930;28;19913;-80
2021/08/16 04:16:11;;;;;;;;;;;18.50;95.80;;;;;;5036554;28;19909;-80
2021/08/16 04:18:37;;;;;;;;;;;18.50;95.90;;;;;;5035460;28;19924;-80
2021/08/16 04:21:02;;;;;;;;;;;18.50;96.00;;;;;;5034734;28;19916;-80
2021/08/16 04:23:28;;;;;;;;;;;18.50;96.20;;;;;;5035263;28;20012;-80
2021/08/16 04:25:53;;;;;;;;;;;18.40;96.10;;;;;;5035304;28;19917;-80
2021/08/16 04:28:19;;;;;;;;;;;18.40;96.20;;;;;;5036024;28;19909;-80
2021/08/16 04:30:45;;;;;;;;;;;18.40;96.30;;;;;;5034752;28;19909;-80
2021/08/16 04:33:11;;;;;;;;;;;18.40;96.40;;;;;;5034853;28;19920;-80
2021/08/16 04:35:37;;;;;;;;;;;18.40;96.40;;;;;;5034737;28;19948;-80
2021/08/16 04:38:03;;;;;;;;;;;18.40;96.40;;;;;;5036277;28;20421;-80
2021/08/16 04:40:28;;;;;;;;;;;18.40;96.50;;;;;;5034534;28;19909;-80
2021/08/16 04:42:54;;;;;;;;;;;18.40;96.60;;;;;;5036188;28;20381;-80
2021/08/16 04:45:19;;;;;;;;;;;18.40;96.60;;;;;;5034620;28;19909;-80
2021/08/16 04:47:45;;;;;;;;;;;18.30;96.70;;;;;;5036396;28;19909;-80
2021/08/16 04:50:11;;;;;;;;;;;18.30;96.80;;;;;;5035330;28;19916;-80
2021/08/16 04:52:36;;;;;;;;;;;18.40;96.80;;;;;;5035935;28;20270;-80
2021/08/16 04:55:02;;;;;;;;;;;18.40;96.80;;;;;;5034888;28;19916;-80
2021/08/16 04:57:31;;;;;;;;;;;18.40;96.90;;;;;;5034509;28;20003;-80
2021/08/16 04:59:57;;;;;;;;;;;18.30;96.90;;;;;;5035292;28;19941;-80
2021/08/16 05:02:23;;;;;;;;;;;18.30;97.00;;;;;;5035866;28;20266;-80
2021/08/16 05:04:53;;;;;;;;;;;18.30;97.00;;;;;;5035721;28;19982;-80
2021/08/16 05:07:19;;;;;;;;;;;18.30;97.10;;;;;;5035737;28;19910;-80
2021/08/16 05:09:44;;;;;;;;;;;18.30;97.10;;;;;;5033394;28;19992;-80
2021/08/16 05:12:10;;;;;;;;;;;18.30;97.20;;;;;;5035152;28;19999;-80
2021/08/16 05:14:35;;;;;;;;;;;18.40;97.20;;;;;;5034013;28;19923;-80
2021/08/16 05:17:01;;;;;;;;;;;18.40;97.30;;;;;;5035364;28;19996;-80
2021/08/16 05:19:26;;;;;;;;;;;18.40;97.20;;;;;;5046106;22;19929;-89
2021/08/16 05:21:52;;;;;;;;;;;18.40;97.30;;;;;;5013230;28;19909;-89
2021/08/16 05:24:17;;;;;;;;;;;18.40;97.30;;;;;;5014375;28;19917;-89
2021/08/16 05:26:43;;;;;;;;;;;18.30;97.30;;;;;;5012969;28;20275;-89
2021/08/16 05:29:08;;;;;;;;;;;18.30;97.40;;;;;;5013812;28;19910;-89
2021/08/16 05:31:34;;;;;;;;;;;18.30;97.50;;;;;;5013095;28;19917;-89
2021/08/16 05:33:59;;;;;;;;;;;18.30;97.40;;;;;;5013186;28;19917;-89
2021/08/16 05:36:56;;;;;;;;;;;;;;;;;;;;;
2021/08/16 05:39:22;;;;;;;;;;;18.30;97.60;;;;;;5009705;28;19916;-89
2021/08/16 05:41:48;;;;;;;;;;;18.30;97.50;;;;;;5012973;28;20004;-89
2021/08/16 05:44:13;;;;;;;;;;;18.30;97.60;;;;;;5012899;28;19914;-89
2021/08/16 05:46:39;;;;;;;;;;;18.30;97.70;;;;;;5013210;28;20255;-89
2021/08/16 05:49:05;;;;;;;;;;;18.40;97.70;;;;;;5012406;28;19952;-89
2021/08/16 05:51:31;;;;;;;;;;;18.40;97.80;;;;;;5013977;28;19909;-89
2021/08/16 05:53:56;;;;;;;;;;;18.30;97.80;;;;;;5012673;28;19917;-89
2021/08/16 05:56:22;;;;;;;;;;;18.40;97.90;;;;;;5013559;28;19913;-88
2021/08/16 05:58:47;;;;;;;;;;;18.40;97.90;;;;;;5012468;28;19932;-89
2021/08/16 06:01:12;;;;;;;;;;;18.40;97.90;;;;;;5012141;28;19909;-89
2021/08/16 06:03:38;;;;;;;;;;;18.30;98.00;;;;;;5012901;28;19914;-89
2021/08/16 06:06:03;;;;;;;;;;;18.30;98.00;;;;;;5012440;28;19914;-89
2021/08/16 06:08:29;;;;;;;;;;;18.30;98.10;;;;;;5012152;28;20000;-89
2021/08/16 06:10:54;;;;;;;;;;;18.30;98.10;;;;;;5011761;28;20286;-89
2021/08/16 06:13:20;;;;;;;;;;;18.30;98.00;;;;;;5011838;28;19917;-89
2021/08/16 06:15:45;;;;;;;;;;;18.30;98.20;;;;;;5014355;28;19910;-89
2021/08/16 06:18:11;;;;;;;;;;;18.30;98.30;;;;;;5012074;28;20401;-89
2021/08/16 06:20:36;;;;;;;;;;;18.30;98.30;;;;;;5011520;28;19917;-89
2021/08/16 06:23:02;;;;;;;;;;;18.30;98.40;;;;;;5013185;28;20258;-89
2021/08/16 06:25:27;;;;;;;;;;;18.30;98.40;;;;;;5012559;28;19909;-89
2021/08/16 06:27:53;;;;;;;;;;;18.30;98.40;;;;;;5012202;28;19944;-89
2021/08/16 06:30:18;;;;;;;;;;;18.40;98.30;;;;;;5012678;28;19909;-89
2021/08/16 06:32:45;;;;;;;;;;;18.40;98.30;;;;;;5011983;28;19999;-89
2021/08/16 06:35:14;;;;;;;;;;;18.40;98.20;;;;;;5011910;28;19917;-89
2021/08/16 06:37:40;;;;;;;;;;;18.40;98.20;;;;;;5011992;28;19910;-89
2021/08/16 06:40:06;;;;;;;;;;;18.40;98.30;;;;;;5011878;28;20259;-89
2021/08/16 06:42:31;;;;;;;;;;;18.40;98.20;;;;;;5011815;28;20374;-89
2021/08/16 06:44:57;;;;;;;;;;;18.40;98.20;;;;;;5011921;28;19924;-89
2021/08/16 06:47:22;;;;;;;;;;;18.40;98.20;;;;;;5011818;28;19909;-89
2021/08/16 06:49:48;;;;;;;;;;;18.50;98.10;;;;;;5011527;28;19959;-89
2021/08/16 06:52:14;;;;;;;;;;;18.50;98.20;;;;;;5011629;28;20337;-88
2021/08/16 06:54:40;;;;;;;;;;;18.60;98.00;;;;;;5012929;28;19940;-89
2021/08/16 06:57:05;;;;;;;;;;;18.60;97.90;;;;;;5011763;28;20004;-89
2021/08/16 06:59:34;;;;;;;;;;;18.60;97.90;;;;;;5011020;28;19910;-89
2021/08/16 07:02:00;;;;;;;;;;;18.60;97.90;;;;;;5011741;28;19932;-89
2021/08/16 07:04:26;;;;;;;;;;;18.50;98.00;;;;;;5011518;28;19913;-88
2021/08/16 07:06:51;;;;;;;;;;;18.60;98.00;;;;;;5011676;28;19913;-88
2021/08/16 07:09:17;;;;;;;;;;;18.60;98.10;;;;;;5011104;28;20440;-89
2021/08/16 07:11:42;;;;;;;;;;;18.70;97.90;;;;;;5011578;28;20337;-89
2021/08/16 07:14:08;;;;;;;;;;;18.80;97.80;;;;;;5011672;28;19910;-89
2021/08/16 07:16:33;;;;;;;;;;;18.80;97.70;;;;;;5012883;28;19910;-89
2021/08/16 07:18:59;;;;;;;;;;;18.80;97.70;;;;;;5012151;28;19968;-89
2021/08/16 07:21:24;;;;;;;;;;;18.80;97.80;;;;;;5012605;28;19913;-89
2021/08/16 07:23:50;;;;;;;;;;;18.80;97.70;;;;;;5012613;28;19914;-89
2021/08/16 07:26:15;;;;;;;;;;;18.90;97.60;;;;;;5014229;28;19916;-89
2021/08/16 07:28:41;;;;;;;;;;;18.90;97.20;;;;;;5016525;28;20516;-89
2021/08/16 07:31:07;;;;;;;;;;;18.90;97.30;;;;;;5016042;28;19921;-88
2021/08/16 07:33:33;;;;;;;;;;;19.00;97.20;;;;;;5015121;28;19949;-89
2021/08/16 07:35:58;;;;;;;;;;;19.00;97.10;;;;;;5015225;28;20378;-89
2021/08/16 07:38:24;;;;;;;;;;;19.10;97.20;;;;;;5015129;28;19914;-89
2021/08/16 07:40:49;;;;;;;;;;;19.00;97.10;;;;;;5016094;28;19916;-88
2021/08/16 07:43:18;;;;;;;;;;;19.00;97.20;;;;;;5016176;28;20290;-89
2021/08/16 07:45:44;;;;;;;;;;;19.00;97.20;;;;;;5015178;28;19909;-88
2021/08/16 07:48:09;;;;;;;;;;;19.10;97.10;;;;;;5014981;28;19916;-89
2021/08/16 07:50:35;;;;;;;;;;;19.00;97.20;;;;;;5014828;28;20281;-89
2021/08/16 07:53:00;;;;;;;;;;;19.00;97.30;;;;;;5016037;28;19932;-89
2021/08/16 07:55:26;;;;;;;;;;;18.90;97.40;;;;;;5016082;28;20381;-89
2021/08/16 07:57:52;;;;;;;;;;;18.90;97.50;;;;;;5016396;28;19917;-89
2021/08/16 08:00:17;;;;;;;;;;;18.90;97.60;;;;;;5014615;28;19909;-89
2021/08/16 08:02:44;;;;;;;;;;;18.90;97.60;;;;;;5014798;28;19909;-89
2021/08/16 08:05:11;;;;;;;;;;;18.90;97.70;;;;;;5014623;28;19913;-89
2021/08/16 08:07:36;;;;;;;;;;;18.90;97.80;;;;;;5015750;28;19909;-89
2021/08/16 08:10:02;;;;;;;;;;;19.00;97.80;;;;;;5014192;28;19916;-89
2021/08/16 08:12:28;;;;;;;;;;;19.10;97.70;;;;;;5015809;28;20286;-89
2021/08/16 08:14:54;;;;;;;;;;;19.10;97.60;;;;;;5015992;28;19964;-89
2021/08/16 08:17:20;;;;;;;;;;;19.20;97.50;;;;;;5015599;28;19909;-89
2021/08/16 08:19:46;;;;;;;;;;;19.20;97.40;;;;;;5013977;28;19926;-89
2021/08/16 08:22:11;;;;;;;;;;;19.20;97.20;;;;;;5014413;28;19910;-89
2021/08/16 08:24:37;;;;;;;;;;;19.30;97.30;;;;;;5015468;28;19917;-89
2021/08/16 08:27:03;;;;;;;;;;;19.30;97.40;;;;;;5014339;28;19910;-89
2021/08/16 08:29:28;;;;;;;;;;;19.30;97.50;;;;;;5014099;28;20370;-89
2021/08/16 08:31:53;;;;;;;;;;;19.30;97.50;;;;;;5014036;28;19956;-89
2021/08/16 08:34:19;;;;;;;;;;;19.20;97.50;;;;;;5014443;28;19967;-89
2021/08/16 08:36:44;;;;;;;;;;;19.20;97.30;;;;;;5014182;28;20281;-89
2021/08/16 08:39:10;;;;;;;;;;;19.20;97.50;;;;;;5013808;28;20427;-89
2021/08/16 08:41:36;;;;;;;;;;;19.20;97.60;;;;;;5015634;28;19910;-89
2021/08/16 08:44:05;;;;;;;;;;;19.20;97.60;;;;;;5014448;28;19914;-89
2021/08/16 08:46:32;;;;;;;;;;;19.20;97.50;;;;;;5014649;28;19909;-88
2021/08/16 08:48:58;;;;;;;;;;;19.10;97.70;;;;;;5015377;28;19909;-89
2021/08/16 08:51:23;;;;;;;;;;;19.20;97.80;;;;;;5014155;28;19909;-89
2021/08/16 08:53:51;;;;;;;;;;;19.20;97.80;;;;;;5014089;28;19916;-89
2021/08/16 08:56:17;;;;;;;;;;;19.20;97.70;;;;;;5015160;28;19910;-89
2021/08/16 08:58:42;;;;;;;;;;;19.20;97.70;;;;;;5014123;28;19910;-89
2021/08/16 09:01:08;;;;;;;;;;;19.20;97.80;;;;;;5013510;28;19917;-89
2021/08/16 09:03:33;;;;;;;;;;;19.20;97.80;;;;;;5014059;28;19920;-89
2021/08/16 09:06:02;;;;;;;;;;;19.10;97.80;;;;;;5013684;28;19909;-88
2021/08/16 09:08:30;;;;;;;;;;;19.10;97.70;;;;;;5013826;28;19909;-89
2021/08/16 09:11:06;;;;;;;;;;;19.20;97.60;;;;;;5013262;28;19947;-89
2021/08/16 09:13:31;;;;;;;;;;;19.20;97.60;;;;;;5013648;28;19917;-89
2021/08/16 09:16:06;;;;;;;;;;;19.20;97.60;;;;;;5014857;28;19910;-88
2021/08/16 09:18:32;;;;;;;;;;;19.30;97.20;;;;;;5013653;28;20286;-89
2021/08/16 09:20:58;;;;;;;;;;;19.30;97.30;;;;;;5013520;28;19917;-89
2021/08/16 09:23:24;;;;;;;;;;;19.30;97.70;;;;;;5014050;28;20470;-89
2021/08/16 09:25:55;;;;;;;;;;;19.40;97.40;;;;;;5013323;28;19992;-89
2021/08/16 09:28:28;;;;;;;;;;;19.40;97.30;;;;;;5013062;28;19910;-89
2021/08/16 09:30:53;;;;;;;;;;;19.40;97.30;;;;;;5012934;28;19936;-89
2021/08/16 09:33:20;;;;;;;;;;;19.40;97.30;;;;;;5014338;28;20285;-89
2021/08/16 09:35:53;;;;;;;;;;;19.40;97.50;;;;;;5014395;28;19909;-89
2021/08/16 09:38:30;;;;;;;;;;;19.40;98.00;;;;;;5013023;28;19909;-88
2021/08/16 09:40:55;;;;;;;;;;;19.40;98.40;;;;;;5013955;28;19905;-89
2021/08/16 09:43:25;;;;;;;;;;;19.40;99.20;;;;;;5014141;28;19910;-89
2021/08/16 09:45:51;;;;;;;;;;;19.30;99.20;;;;;;5014323;28;19931;-89
2021/08/16 09:48:20;;;;;;;;;;;19.30;99.70;;;;;;5011996;28;20020;-89
2021/08/16 09:50:46;;;;;;;;;;;19.20;99.90;;;;;;5013841;28;19909;-88
2021/08/16 09:53:19;;;;;;;;;;;19.10;99.90;;;;;;5012682;28;19956;-88
2021/08/16 09:55:45;;;;;;;;;;;19.00;99.90;;;;;;5012916;28;19996;-88
2021/08/16 09:58:14;;;;;;;;;;;18.80;99.90;;;;;;5013748;28;19909;-89
2021/08/16 10:00:41;;;;;;;;;;;18.80;99.90;;;;;;5013533;28;19917;-89
2021/08/16 10:03:08;;;;;;;;;;;18.70;99.90;;;;;;5013839;28;20000;-88
2021/08/16 10:05:37;;;;;;;;;;;18.70;99.90;;;;;;5012467;28;19996;-89
2021/08/16 10:08:07;;;;;;;;;;;18.60;99.90;;;;;;5012575;28;19916;-89
2021/08/16 10:10:34;;;;;;;;;;;18.60;99.90;;;;;;5011988;28;20282;-88
2021/08/16 10:13:00;;;;;;;;;;;18.50;99.90;;;;;;5012333;28;19952;-88
2021/08/16 10:15:26;;;;;;;;;;;18.60;99.90;;;;;;5013554;28;19910;-88
2021/08/16 10:17:52;;;;;;;;;;;18.60;99.90;;;;;;5012288;28;19909;-88
2021/08/16 10:20:18;;;;;;;;;;;18.50;99.90;;;;;;5011513;28;19972;-88
2021/08/16 10:22:43;;;;;;;;;;;18.50;99.90;;;;;;5012179;28;19941;-88
2021/08/16 10:25:09;;;;;;;;;;;18.50;99.90;;;;;;5012133;28;19914;-89
2021/08/16 10:27:35;;;;;;;;;;;18.40;99.90;;;;;;5012103;28;20378;-88
2021/08/16 10:30:04;;;;;;;;;;;18.30;99.90;;;;;;5011509;28;19909;-88
2021/08/16 10:32:30;;;;;;;;;;;18.20;99.90;;;;;;5013080;28;19910;-88
2021/08/16 10:35:04;;;;;;;;;;;18.20;99.90;;;;;;5011902;28;19920;-88
2021/08/16 10:37:34;;;;;;;;;;;18.10;99.90;;;;;;5013247;28;19965;-89
2021/08/16 10:40:00;;;;;;;;;;;18.10;99.90;;;;;;5011429;28;19916;-88
2021/08/16 10:42:33;;;;;;;;;;;18.10;99.90;;;;;;5011885;28;20001;-88
2021/08/16 10:45:02;;;;;;;;;;;18.10;99.90;;;;;;5011890;28;19920;-88
2021/08/16 10:47:29;;;;;;;;;;;18.00;99.90;;;;;;5011742;28;19916;-88
2021/08/16 10:50:11;;;;;;;;;;;18.00;99.90;;;;;;5011526;28;20000;-89
2021/08/16 10:52:38;;;;;;;;;;;18.00;99.90;;;;;;5011702;28;19920;-88
2021/08/16 10:55:17;;;;;;;;;;;18.10;99.90;;;;;;5011910;28;19917;-88
2021/08/16 10:57:43;;;;;;;;;;;18.10;99.90;;;;;;5011981;28;19909;-89
2021/08/16 11:00:10;;;;;;;;;;;18.10;99.90;;;;;;5011216;28;20254;-88
2021/08/16 11:02:40;;;;;;;;;;;18.10;99.90;;;;;;5011681;28;19941;-88
2021/08/16 11:05:06;;;;;;;;;;;18.10;99.90;;;;;;5011410;28;19918;-88
2021/08/16 11:07:32;;;;;;;;;;;18.10;99.90;;;;;;5012855;28;19910;-89
2021/08/16 11:09:58;;;;;;;;;;;18.10;99.90;;;;;;5011016;28;19910;-89
2021/08/16 11:12:32;;;;;;;;;;;18.20;99.90;;;;;;5011564;28;19910;-88
2021/08/16 11:14:57;;;;;;;;;;;18.10;99.90;;;;;;5012661;28;19941;-89
2021/08/16 11:17:27;;;;;;;;;;;18.10;99.90;;;;;;5011510;28;19948;-88
2021/08/16 11:19:56;;;;;;;;;;;18.20;99.90;;;;;;5013008;28;19917;-89
2021/08/16 11:22:22;;;;;;;;;;;18.20;99.90;;;;;;5014007;28;20378;-88
2021/08/16 11:24:48;;;;;;;;;;;18.20;99.90;;;;;;5014245;28;19914;-88
2021/08/16 11:27:20;;;;;;;;;;;18.20;99.90;;;;;;5014013;28;19909;-88
2021/08/16 11:29:58;;;;;;;;;;;18.10;99.90;;;;;;5013148;28;19910;-88
2021/08/16 11:32:25;;;;;;;;;;;18.10;99.90;;;;;;5012154;28;19909;-88
2021/08/16 11:34:53;;;;;;;;;;;18.10;99.90;;;;;;5013354;28;19916;-88
2021/08/16 11:37:19;;;;;;;;;;;18.10;99.90;;;;;;5012608;28;20413;-88
2021/08/16 11:39:48;;;;;;;;;;;18.00;99.90;;;;;;5013201;28;19913;-88
2021/08/16 11:42:14;;;;;;;;;;;18.00;99.90;;;;;;5012587;28;19910;-88
2021/08/16 11:44:39;;;;;;;;;;;18.10;99.90;;;;;;5013683;28;19913;-88
2021/08/16 11:47:05;;;;;;;;;;;18.10;99.90;;;;;;5013491;28;19916;-88
2021/08/16 11:49:32;;;;;;;;;;;18.10;99.90;;;;;;5011882;28;19909;-88
2021/08/16 11:51:58;;;;;;;;;;;18.10;99.90;;;;;;5012244;28;19925;-89
2021/08/16 11:54:25;;;;;;;;;;;18.10;99.90;;;;;;5012545;28;19910;-88
2021/08/16 11:56:51;;;;;;;;;;;18.00;99.90;;;;;;5012985;28;19913;-88
2021/08/16 11:59:16;;;;;;;;;;;18.00;99.20;;;;;;5013014;28;20134;-88
2021/08/16 12:01:43;;;;;;;;;;;18.00;98.50;;;;;;5021509;28;19910;-88
2021/08/16 12:04:10;;;;;;;;;;;18.00;98.50;;;;;;5024436;28;19936;-88
2021/08/16 12:06:36;;;;;;;;;;;17.90;98.20;;;;;;5015845;28;19914;-88
2021/08/16 12:09:05;;;;;;;;;;;18.00;98.20;;;;;;5011256;28;19910;-88
2021/08/16 12:11:31;;;;;;;;;;;17.90;98.00;;;;;;5014710;28;19916;-88
2021/08/16 12:13:57;;;;;;;;;;;17.90;98.50;;;;;;5017509;28;19914;-89
2021/08/16 12:16:28;;;;;;;;;;;17.90;99.00;;;;;;5015622;28;19910;-88
2021/08/16 12:18:57;;;;;;;;;;;17.90;99.10;;;;;;5015132;28;20000;-89
2021/08/16 12:21:23;;;;;;;;;;;17.90;99.40;;;;;;5032284;28;19910;-89
2021/08/16 12:23:53;;;;;;;;;;;17.90;99.90;;;;;;5015575;28;20008;-88
2021/08/16 12:26:27;;;;;;;;;;;17.90;99.90;;;;;;5015433;28;19909;-88
2021/08/16 12:28:52;;;;;;;;;;;17.80;99.90;;;;;;5017657;28;19909;-89
2021/08/16 12:31:19;;;;;;;;;;;17.80;99.90;;;;;;5016300;28;19971;-88
2021/08/16 12:34:02;;;;;;;;;;;17.80;99.90;;;;;;5015009;28;19913;-89
2021/08/16 12:36:32;;;;;;;;;;;17.90;99.90;;;;;;5015360;28;19914;-88
2021/08/16 12:39:02;;;;;;;;;;;17.80;99.90;;;;;;5014401;28;20294;-88
2021/08/16 12:41:28;;;;;;;;;;;17.80;99.90;;;;;;5014984;28;19910;-88
2021/08/16 12:43:54;;;;;;;;;;;17.90;99.90;;;;;;5014754;28;19917;-88
2021/08/16 12:46:33;;;;;;;;;;;17.90;99.90;;;;;;5014694;28;20456;-88
2021/08/16 12:49:00;;;;;;;;;;;17.90;99.90;;;;;;5015592;28;19948;-89
2021/08/16 12:51:26;;;;;;;;;;;17.90;99.90;;;;;;5016299;28;19910;-88
2021/08/16 12:53:55;;;;;;;;;;;18.00;99.90;;;;;;5016333;28;20354;-88
2021/08/16 12:56:20;;;;;;;;;;;18.10;99.90;;;;;;5015867;28;19949;-88
2021/08/16 12:58:46;;;;;;;;;;;18.00;99.90;;;;;;5014653;28;19917;-88
2021/08/16 13:01:25;;;;;;;;;;;18.10;99.90;;;;;;5014923;28;19973;-88
2021/08/16 13:03:51;;;;;;;;;;;18.10;99.90;;;;;;5014707;28;19939;-88
2021/08/16 13:06:17;;;;;;;;;;;18.20;99.90;;;;;;5014439;28;19914;-88
2021/08/16 13:08:43;;;;;;;;;;;18.20;99.90;;;;;;5014380;28;20059;-88
2021/08/16 13:11:10;;;;;;;;;;;18.20;99.90;;;;;;5014826;28;20336;-88
2021/08/16 13:13:36;;;;;;;;;;;18.20;99.90;;;;;;5016000;28;19955;-88
2021/08/16 13:16:02;;;;;;;;;;;18.20;99.90;;;;;;5014576;28;19909;-88
2021/08/16 13:18:27;;;;;;;;;;;18.20;99.90;;;;;;5014401;28;19920;-88
2021/08/16 13:20:55;;;;;;;;;;;18.10;99.90;;;;;;5014333;28;19992;-88
2021/08/16 13:23:20;;;;;;;;;;;18.20;99.90;;;;;;5014227;28;20362;-88
2021/08/16 13:25:46;;;;;;;;;;;18.20;99.90;;;;;;5014836;28;19992;-88
2021/08/16 13:28:11;;;;;;;;;;;18.20;99.20;;;;;;5014941;28;19936;-88
2021/08/16 13:30:37;;;;;;;;;;;18.20;98.00;;;;;;5013442;28;19952;-88
2021/08/16 13:33:03;;;;;;;;;;;18.30;97.30;;;;;;5014081;28;19932;-88
2021/08/16 13:35:28;;;;;;;;;;;18.20;96.70;;;;;;5013997;28;19909;-88
2021/08/16 13:37:54;;;;;;;;;;;18.20;96.80;;;;;;5014102;28;20274;-88
2021/08/16 13:40:19;;;;;;;;;;;18.20;96.60;;;;;;5013526;28;19909;-88
2021/08/16 13:42:45;;;;;;;;;;;18.10;96.80;;;;;;5014346;28;20278;-88
2021/08/16 13:45:11;;;;;;;;;;;18.10;96.70;;;;;;5016442;28;19921;-88
2021/08/16 13:47:36;;;;;;;;;;;18.20;96.80;;;;;;5015617;28;19936;-88
2021/08/16 13:50:02;;;;;;;;;;;18.20;96.60;;;;;;5014482;28;19910;-88
2021/08/16 13:52:29;;;;;;;;;;;18.30;96.60;;;;;;5015508;28;20008;-88
2021/08/16 13:54:56;;;;;;;;;;;18.30;96.60;;;;;;5014025;28;20044;-88
2021/08/16 13:57:21;;;;;;;;;;;18.30;96.70;;;;;;5014150;28;20028;-88
2021/08/16 13:59:46;;;;;;;;;;;18.30;97.00;;;;;;5013352;28;19948;-89
2021/08/16 14:02:12;;;;;;;;;;;18.20;97.00;;;;;;5013607;28;20366;-88
2021/08/16 14:04:37;;;;;;;;;;;18.00;96.40;;;;;;5013982;28;19921;-88
2021/08/16 14:07:03;;;;;;;;;;;17.80;97.10;;;;;;5015037;28;19910;-88
2021/08/16 14:09:29;;;;;;;;;;;17.60;98.30;;;;;;5012698;28;19916;-88
2021/08/16 14:11:54;;;;;;;;;;;17.40;99.50;;;;;;5013326;28;20379;-88
2021/08/16 14:14:19;;;;;;;;;;;17.30;99.90;;;;;;5014217;28;19917;-88